Time;durP1;ratioP1;P1;durP2;ratioP2;P2;SDS_P1;SDS_P2;PMS_P1;PMS_P2;Temp;Humidity;BMP_temperature;BMP_pressure;BME280_temperature;BME280_humidity;BME280_pressure;Samples;Min_cycle;Max_cycle;Signal;HPM_P1;HPM_P2
2023/12/13 00:01:28;;;;;;;0.47;0.22;;;12.90;61.20;;;;;;5023591;28;20422;-36
2023/12/13 00:03:55;;;;;;;0.50;0.28;;;12.80;61.10;;;;;;5022421;28;20516;-37
2023/12/13 00:06:22;;;;;;;0.80;0.43;;;12.80;61.10;;;;;;5024604;28;20057;-37
2023/12/13 00:08:50;;;;;;;3.25;0.50;;;12.80;61.10;;;;;;5026779;28;20057;-36
2023/12/13 00:11:18;;;;;;;16.02;1.23;;;12.80;61.10;;;;;;5024831;28;20053;-36
2023/12/13 00:13:46;;;;;;;1.40;0.32;;;12.80;61.10;;;;;;5021855;28;20575;-36
2023/12/13 00:16:13;;;;;;;1.50;0.30;;;12.80;61.10;;;;;;5019630;28;20057;-36
2023/12/13 00:18:40;;;;;;;1.20;0.30;;;12.80;61.00;;;;;;5018591;28;20054;-37
2023/12/13 00:21:09;;;;;;;0.30;0.20;;;12.80;61.00;;;;;;5027101;28;20065;-35
2023/12/13 00:23:36;;;;;;;2.35;0.40;;;12.80;60.80;;;;;;5021321;28;20092;-37
2023/12/13 00:26:04;;;;;;;1.75;0.57;;;12.80;60.60;;;;;;5018605;28;20049;-37
2023/12/13 00:28:34;;;;;;;1.75;0.40;;;12.80;60.30;;;;;;5020798;28;20041;-37
2023/12/13 00:31:01;;;;;;;3.00;0.57;;;12.80;60.30;;;;;;5020652;28;20050;-36
2023/12/13 00:33:29;;;;;;;1.45;0.50;;;12.80;60.50;;;;;;5023715;28;20401;-36
2023/12/13 00:35:56;;;;;;;1.60;0.40;;;12.80;60.30;;;;;;5023384;28;20053;-36
2023/12/13 00:38:23;;;;;;;2.13;0.40;;;12.80;60.30;;;;;;5022708;28;20077;-37
2023/12/13 00:40:50;;;;;;;1.00;0.30;;;12.80;60.40;;;;;;5026885;28;20053;-36
2023/12/13 00:43:18;;;;;;;1.55;0.63;;;12.80;60.40;;;;;;5021916;28;20728;-36
2023/12/13 00:45:46;;;;;;;2.33;0.40;;;12.80;60.40;;;;;;5025016;28;20050;-36
2023/12/13 00:48:14;;;;;;;1.15;0.40;;;12.70;60.40;;;;;;5023825;28;20493;-36
2023/12/13 00:50:41;;;;;;;0.40;0.20;;;12.70;60.40;;;;;;5025735;28;20058;-36
2023/12/13 00:53:08;;;;;;;1.35;0.47;;;12.80;60.50;;;;;;5020009;28;20054;-50
2023/12/13 00:55:35;;;;;;;1.73;0.20;;;12.80;60.50;;;;;;5020348;28;20057;-42
2023/12/13 00:58:03;;;;;;;1.00;0.32;;;12.80;60.50;;;;;;5021455;28;20411;-45
2023/12/13 01:00:30;;;;;;;1.77;0.28;;;12.80;60.50;;;;;;5022638;28;20056;-47
2023/12/13 01:02:58;;;;;;;3.35;0.40;;;12.70;60.50;;;;;;5022445;28;20056;-45
2023/12/13 01:05:26;;;;;;;3.13;0.50;;;12.70;60.50;;;;;;5025413;28;20057;-40
2023/12/13 01:07:53;;;;;;;1.77;0.43;;;12.70;60.50;;;;;;5019118;28;20065;-47
2023/12/13 01:10:20;;;;;;;1.15;0.30;;;12.70;60.60;;;;;;5023692;28;20371;-45
2023/12/13 01:12:48;;;;;;;1.73;0.50;;;12.80;60.70;;;;;;5021621;28;20065;-44
2023/12/13 01:15:15;;;;;;;1.80;0.40;;;12.80;60.70;;;;;;5021973;28;20041;-47
2023/12/13 01:17:43;;;;;;;1.33;0.30;;;12.80;60.70;;;;;;5022962;28;20076;-41
2023/12/13 01:20:12;;;;;;;1.90;0.30;;;12.70;60.60;;;;;;5020102;28;20061;-47
2023/12/13 01:22:39;;;;;;;1.02;0.30;;;12.80;60.70;;;;;;5025206;28;20064;-49
2023/12/13 01:25:07;;;;;;;0.98;0.40;;;12.70;60.60;;;;;;5021317;28;20045;-40
2023/12/13 01:27:34;;;;;;;0.40;0.30;;;12.70;60.60;;;;;;5019025;28;20389;-47
2023/12/13 01:30:03;;;;;;;2.53;0.60;;;12.80;60.70;;;;;;5026058;28;20057;-48
2023/12/13 01:32:30;;;;;;;3.53;0.60;;;12.80;60.80;;;;;;5023117;28;20512;-49
2023/12/13 01:34:57;;;;;;;2.20;0.65;;;12.80;60.70;;;;;;5022283;28;20045;-45
2023/12/13 01:37:27;;;;;;;2.60;0.52;;;12.70;60.70;;;;;;5021685;28;20056;-45
2023/12/13 01:39:56;;;;;;;0.63;0.30;;;12.70;60.70;;;;;;5021442;28;20132;-51
2023/12/13 01:42:24;;;;;;;1.35;0.55;;;12.70;60.80;;;;;;5018265;28;20053;-40
2023/12/13 01:44:51;;;;;;;3.85;0.35;;;12.70;60.80;;;;;;5021931;28;20056;-47
2023/12/13 01:47:19;;;;;;;2.70;0.57;;;12.70;61.50;;;;;;5021419;28;20053;-42
2023/12/13 01:49:47;;;;;;;1.42;0.60;;;12.70;60.90;;;;;;5027214;28;20072;-48
2023/12/13 01:52:16;;;;;;;3.03;0.98;;;12.70;61.70;;;;;;5020387;28;20497;-49
2023/12/13 01:54:44;;;;;;;2.47;0.65;;;12.70;61.00;;;;;;5023622;28;20050;-49
2023/12/13 01:57:14;;;;;;;2.58;0.70;;;12.70;61.00;;;;;;5019338;28;20124;-49
2023/12/13 01:59:42;;;;;;;2.70;0.30;;;12.70;61.00;;;;;;5020416;28;20053;-46
2023/12/13 02:02:11;;;;;;;1.25;0.50;;;12.70;61.00;;;;;;5021110;28;20053;-37
2023/12/13 02:04:39;;;;;;;2.75;0.60;;;12.70;61.00;;;;;;5019834;28;20054;-36
2023/12/13 02:07:06;;;;;;;2.03;0.50;;;12.70;61.00;;;;;;5020887;28;20053;-36
2023/12/13 02:09:33;;;;;;;1.70;0.40;;;12.70;61.00;;;;;;5021977;28;20073;-36
2023/12/13 02:12:02;;;;;;;1.40;0.50;;;12.80;61.10;;;;;;5016543;28;20504;-37
2023/12/13 02:14:30;;;;;;;6.28;0.93;;;12.70;61.00;;;;;;5017812;28;20058;-36
2023/12/13 02:16:57;;;;;;;3.90;0.65;;;12.80;61.00;;;;;;5021494;28;20056;-35
2023/12/13 02:19:24;;;;;;;2.65;0.60;;;12.70;60.90;;;;;;5023122;28;20057;-36
2023/12/13 02:21:53;;;;;;;5.25;0.60;;;12.80;61.00;;;;;;5024258;28;21789;-37
2023/12/13 02:24:25;;;;;;;1.40;0.80;;;12.70;60.90;;;;;;5021600;28;20049;-36
2023/12/13 02:26:55;;;;;;;4.07;0.95;;;12.70;60.90;;;;;;5022603;28;20049;-37
2023/12/13 02:29:22;;;;;;;2.75;0.63;;;12.70;61.60;;;;;;5018717;28;20057;-37
2023/12/13 02:31:50;;;;;;;3.47;0.85;;;12.70;60.90;;;;;;5023672;28;20065;-36
2023/12/13 02:34:17;;;;;;;6.65;0.85;;;12.70;60.90;;;;;;5023680;28;20494;-36
2023/12/13 02:36:48;;;;;;;3.55;1.08;;;12.70;60.90;;;;;;5023451;28;20509;-37
2023/12/13 02:39:15;;;;;;;6.30;0.60;;;12.80;60.90;;;;;;5025131;28;20058;-36
2023/12/13 02:41:44;;;;;;;3.67;0.77;;;12.70;60.90;;;;;;5023978;28;20054;-36
2023/12/13 02:44:11;;;;;;;3.88;0.60;;;12.80;61.00;;;;;;5019861;28;20064;-36
2023/12/13 02:46:38;;;;;;;3.78;0.70;;;12.70;60.90;;;;;;5022751;28;20049;-37
2023/12/13 02:49:05;;;;;;;3.53;0.63;;;12.70;60.90;;;;;;5022411;28;20061;-36
2023/12/13 02:51:33;;;;;;;4.07;0.90;;;12.80;60.90;;;;;;5021576;28;20080;-37
2023/12/13 02:54:00;;;;;;;3.05;0.70;;;12.80;60.90;;;;;;5021660;28;20053;-36
2023/12/13 02:56:27;;;;;;;3.33;1.05;;;12.70;60.80;;;;;;5021560;28;20622;-36
2023/12/13 02:58:56;;;;;;;2.65;0.70;;;12.80;60.80;;;;;;5019708;28;20124;-36
2023/12/13 03:01:23;;;;;;;2.63;0.60;;;12.80;60.70;;;;;;5024565;28;20417;-37
2023/12/13 03:03:50;;;;;;;3.72;0.57;;;12.80;60.70;;;;;;5023925;28;20069;-37
2023/12/13 03:06:17;;;;;;;4.32;0.70;;;12.80;60.60;;;;;;5024066;28;20050;-36
2023/12/13 03:08:44;;;;;;;3.95;0.60;;;12.70;60.50;;;;;;5022303;28;20061;-36
2023/12/13 03:11:11;;;;;;;4.10;0.70;;;12.70;60.50;;;;;;5016773;28;20049;-37
2023/12/13 03:13:39;;;;;;;2.58;0.85;;;12.80;60.60;;;;;;5017764;28;20080;-49
2023/12/13 03:16:08;;;;;;;3.90;0.85;;;12.70;60.50;;;;;;5016753;28;20045;-46
2023/12/13 03:18:35;;;;;;;7.00;0.70;;;12.70;60.50;;;;;;5023291;28;20523;-41
2023/12/13 03:21:03;;;;;;;6.22;0.70;;;12.70;60.50;;;;;;5023584;28;20045;-48
2023/12/13 03:23:30;;;;;;;1.83;0.60;;;12.70;60.50;;;;;;5026326;28;20143;-49
2023/12/13 03:25:57;;;;;;;3.95;0.70;;;12.70;60.50;;;;;;5022340;28;20057;-51
2023/12/13 03:28:24;;;;;;;5.53;0.70;;;12.70;60.50;;;;;;5022256;28;20069;-44
2023/12/13 03:30:51;;;;;;;6.68;1.25;;;12.70;60.50;;;;;;5023425;28;20329;-45
2023/12/13 03:33:20;;;;;;;4.10;0.70;;;12.70;60.50;;;;;;5024827;28;20052;-50
2023/12/13 03:35:47;;;;;;;5.70;1.15;;;12.70;60.40;;;;;;5025799;28;20056;-41
2023/12/13 03:38:14;;;;;;;4.65;0.98;;;12.70;60.30;;;;;;5021966;28;20061;-46
2023/12/13 03:40:42;;;;;;;3.13;0.85;;;12.70;60.30;;;;;;5023100;28;20060;-43
2023/12/13 03:43:09;;;;;;;3.13;0.68;;;12.70;60.20;;;;;;5024217;28;20048;-43
2023/12/13 03:45:36;;;;;;;8.85;1.15;;;12.70;60.10;;;;;;5024408;28;20136;-42
2023/12/13 03:48:03;;;;;;;3.38;0.80;;;12.70;60.00;;;;;;5024612;28;20068;-45
2023/12/13 03:50:32;;;;;;;5.10;0.85;;;12.70;59.90;;;;;;5024010;28;20056;-47
2023/12/13 03:52:59;;;;;;;4.15;0.90;;;12.70;59.80;;;;;;5023442;28;20049;-49
2023/12/13 03:55:26;;;;;;;2.60;0.70;;;12.60;59.70;;;;;;5025563;28;20430;-50
2023/12/13 03:57:53;;;;;;;3.40;0.70;;;12.60;59.70;;;;;;5019628;28;20072;-46
2023/12/13 04:00:21;;;;;;;2.22;0.70;;;12.60;59.60;;;;;;5026447;28;20053;-47
2023/12/13 04:02:48;;;;;;;2.38;0.50;;;12.60;59.60;;;;;;5018581;28;20050;-46
2023/12/13 04:05:15;;;;;;;7.10;0.70;;;12.50;59.60;;;;;;5021388;28;20049;-45
2023/12/13 04:07:44;;;;;;;6.68;0.73;;;12.50;59.60;;;;;;5023287;28;20498;-46
2023/12/13 04:10:11;;;;;;;2.35;0.77;;;12.50;59.60;;;;;;5021523;28;20378;-46
2023/12/13 04:12:38;;;;;;;2.60;0.70;;;12.40;59.60;;;;;;5023406;28;20053;-44
2023/12/13 04:15:06;;;;;;;3.83;0.68;;;12.40;59.60;;;;;;5023098;28;20057;-44
2023/12/13 04:17:33;;;;;;;7.35;1.25;;;12.40;59.60;;;;;;5019947;28;20053;-47
2023/12/13 04:20:01;;;;;;;2.60;0.80;;;12.40;59.70;;;;;;5023512;28;20053;-47
2023/12/13 04:22:28;;;;;;;6.28;1.25;;;12.40;59.70;;;;;;5020770;28;20560;-37
2023/12/13 04:24:56;;;;;;;5.03;0.80;;;12.30;59.70;;;;;;5023246;28;20079;-37
2023/12/13 04:27:24;;;;;;;9.48;0.98;;;12.30;59.60;;;;;;5017702;28;21556;-36
2023/12/13 04:29:51;;;;;;;2.75;0.70;;;12.30;59.60;;;;;;5021654;28;20054;-36
2023/12/13 04:32:18;;;;;;;3.03;0.75;;;12.30;59.60;;;;;;5023551;28;20072;-36
2023/12/13 04:34:45;;;;;;;2.80;0.73;;;12.30;59.50;;;;;;5020373;28;20045;-36
2023/12/13 04:37:13;;;;;;;5.63;1.00;;;12.30;59.50;;;;;;5017578;28;20045;-36
2023/12/13 04:39:40;;;;;;;5.88;0.90;;;12.30;59.50;;;;;;5024684;28;20061;-36
2023/12/13 04:42:09;;;;;;;5.97;0.88;;;12.20;59.50;;;;;;5018232;28;20521;-36
2023/12/13 04:44:36;;;;;;;3.03;0.70;;;12.20;59.50;;;;;;5017189;28;20052;-36
2023/12/13 04:47:03;;;;;;;7.18;1.00;;;12.20;59.60;;;;;;5018858;28;20054;-36
2023/12/13 04:49:31;;;;;;;3.50;0.80;;;12.10;59.60;;;;;;5020870;28;20089;-37
2023/12/13 04:51:58;;;;;;;10.40;1.55;;;12.10;59.70;;;;;;5021796;28;20422;-36
2023/12/13 04:54:25;;;;;;;5.68;1.00;;;12.20;59.80;;;;;;5023660;28;20053;-36
2023/12/13 04:56:52;;;;;;;5.15;1.00;;;12.10;59.80;;;;;;5014038;28;20049;-37
2023/12/13 04:59:21;;;;;;;7.85;1.33;;;12.10;59.80;;;;;;5022499;28;20049;-37
2023/12/13 05:01:48;;;;;;;7.40;1.05;;;12.10;59.70;;;;;;5019096;28;20045;-36
2023/12/13 05:04:15;;;;;;;7.57;1.40;;;12.10;59.70;;;;;;5019063;28;20057;-37
2023/12/13 05:06:41;;;;;;;7.72;1.00;;;12.10;59.70;;;;;;5017491;28;20131;-37
2023/12/13 05:09:09;;;;;;;8.68;1.45;;;12.10;59.70;;;;;;5020462;28;20049;-37
2023/12/13 05:11:36;;;;;;;4.05;0.60;;;12.10;59.70;;;;;;5020809;28;20065;-36
2023/12/13 05:14:04;;;;;;;6.22;1.13;;;12.00;59.70;;;;;;5016716;28;20054;-36
2023/12/13 05:16:33;;;;;;;5.15;1.00;;;12.00;59.70;;;;;;5014504;28;20076;-37
2023/12/13 05:19:00;;;;;;;7.50;1.17;;;12.00;59.70;;;;;;5020270;28;20057;-37
2023/12/13 05:21:28;;;;;;;4.13;0.88;;;12.00;59.70;;;;;;5019747;28;20069;-36
2023/12/13 05:23:55;;;;;;;5.30;1.20;;;12.00;59.80;;;;;;5018834;28;20441;-37
2023/12/13 05:26:23;;;;;;;4.97;1.00;;;12.00;59.80;;;;;;5019746;28;20050;-36
2023/12/13 05:28:50;;;;;;;4.03;1.00;;;11.90;59.80;;;;;;5023453;28;20041;-36
2023/12/13 05:31:20;;;;;;;10.18;1.25;;;11.90;59.90;;;;;;5026408;28;20080;-36
2023/12/13 05:33:49;;;;;;;7.07;1.10;;;11.90;59.90;;;;;;5021735;28;20053;-46
2023/12/13 05:36:17;;;;;;;5.88;1.10;;;11.90;59.90;;;;;;5023491;28;20054;-47
2023/12/13 05:38:44;;;;;;;8.65;1.40;;;11.90;59.80;;;;;;5022163;28;20052;-47
2023/12/13 05:41:11;;;;;;;6.85;0.93;;;11.90;59.90;;;;;;5022983;28;20049;-42
2023/12/13 05:43:39;;;;;;;5.07;1.38;;;11.90;59.90;;;;;;5022832;28;20490;-44
2023/12/13 05:46:07;;;;;;;5.18;1.15;;;11.90;59.90;;;;;;5022435;28;20050;-43
2023/12/13 05:48:34;;;;;;;6.90;1.33;;;11.90;60.00;;;;;;5017566;28;20300;-49
2023/12/13 05:51:03;;;;;;;9.85;1.65;;;11.90;60.00;;;;;;5024552;28;20058;-47
2023/12/13 05:53:31;;;;;;;6.13;1.27;;;11.90;60.00;;;;;;5022616;28;20045;-48
2023/12/13 05:56:00;;;;;;;8.15;1.30;;;11.90;60.00;;;;;;5023260;28;20060;-49
2023/12/13 05:58:29;;;;;;;6.78;1.05;;;11.90;60.00;;;;;;5021104;28;20046;-49
2023/12/13 06:00:57;;;;;;;6.43;1.17;;;11.80;60.00;;;;;;5021347;28;20063;-50
2023/12/13 06:03:25;;;;;;;4.20;0.95;;;11.80;60.00;;;;;;5023655;28;20049;-45
2023/12/13 06:05:52;;;;;;;5.30;1.02;;;11.80;60.00;;;;;;5017867;28;20049;-40
2023/12/13 06:08:20;;;;;;;7.63;1.30;;;11.80;60.10;;;;;;5021299;28;20053;-45
2023/12/13 06:10:48;;;;;;;5.22;1.25;;;11.80;60.10;;;;;;5022946;28;20146;-45
2023/12/13 06:13:17;;;;;;;6.80;1.13;;;11.80;60.10;;;;;;5019614;28;20061;-39
2023/12/13 06:15:45;;;;;;;7.63;1.67;;;11.80;60.20;;;;;;5017128;28;20046;-48
2023/12/13 06:18:13;;;;;;;12.18;3.38;;;11.80;60.30;;;;;;5023803;28;20057;-44
2023/12/13 06:20:40;;;;;;;6.40;1.50;;;11.80;60.30;;;;;;5023316;28;20509;-45
2023/12/13 06:23:07;;;;;;;8.40;1.40;;;11.80;60.30;;;;;;5014725;28;20049;-47
2023/12/13 06:25:36;;;;;;;13.68;1.98;;;11.80;60.20;;;;;;5021450;28;20072;-42
2023/12/13 06:28:04;;;;;;;6.22;1.17;;;11.80;60.10;;;;;;5024963;28;20041;-42
2023/12/13 06:30:31;;;;;;;5.70;1.10;;;11.70;59.90;;;;;;5022221;28;20056;-49
2023/12/13 06:32:59;;;;;;;5.63;1.13;;;11.70;59.90;;;;;;5022010;28;20049;-46
2023/12/13 06:35:26;;;;;;;9.82;1.17;;;11.70;59.90;;;;;;5022973;28;20053;-42
2023/12/13 06:37:53;;;;;;;4.45;1.25;;;11.70;59.90;;;;;;5022590;28;20045;-47
2023/12/13 06:40:21;;;;;;;5.75;1.17;;;11.60;59.80;;;;;;5024668;28;20068;-45
2023/12/13 06:42:49;;;;;;;5.03;1.17;;;11.60;59.80;;;;;;5023712;28;20046;-36
2023/12/13 06:45:16;;;;;;;7.28;1.40;;;11.60;59.80;;;;;;5021773;28;20080;-36
2023/12/13 06:47:43;;;;;;;3.65;1.15;;;11.60;59.80;;;;;;5023377;28;20045;-36
2023/12/13 06:50:11;;;;;;;7.38;1.27;;;11.60;59.90;;;;;;5024583;28;20049;-36
2023/12/13 06:52:38;;;;;;;5.03;1.02;;;11.60;59.80;;;;;;5023742;28;20056;-36
2023/12/13 06:55:06;;;;;;;9.73;0.88;;;11.50;59.80;;;;;;5024935;28;20045;-36
2023/12/13 06:57:33;;;;;;;4.55;1.23;;;11.50;59.90;;;;;;5015101;28;20041;-36
2023/12/13 07:00:02;;;;;;;8.27;1.38;;;11.50;59.90;;;;;;5019730;28;20717;-35
2023/12/13 07:02:29;;;;;;;6.00;1.00;;;11.50;60.00;;;;;;5021304;28;20068;-37
2023/12/13 07:04:56;;;;;;;5.22;1.45;;;11.50;59.90;;;;;;5021097;28;20068;-36
2023/12/13 07:07:23;;;;;;;3.65;1.13;;;11.50;60.00;;;;;;5022068;28;20049;-36
2023/12/13 07:09:51;;;;;;;5.28;1.10;;;11.40;60.00;;;;;;5020186;28;20064;-36
2023/12/13 07:12:18;;;;;;;4.80;1.05;;;11.40;60.00;;;;;;5023228;28;20061;-36
2023/12/13 07:14:45;;;;;;;10.82;1.38;;;11.40;60.10;;;;;;5023386;28;20052;-36
2023/12/13 07:17:14;;;;;;;6.45;1.25;;;11.40;60.10;;;;;;5019328;28;20055;-37
2023/12/13 07:19:41;;;;;;;9.10;1.30;;;11.40;60.10;;;;;;5028016;28;20060;-36
2023/12/13 07:22:08;;;;;;;4.15;1.20;;;11.40;60.20;;;;;;5023942;28;20502;-37
2023/12/13 07:24:36;;;;;;;2.95;1.00;;;11.40;60.30;;;;;;5020899;28;20061;-37
2023/12/13 07:27:03;;;;;;;7.97;1.33;;;11.30;60.30;;;;;;5021053;28;20054;-37
2023/12/13 07:29:32;;;;;;;2.92;1.13;;;11.30;60.30;;;;;;5022722;28;20494;-36
2023/12/13 07:31:59;;;;;;;3.97;1.08;;;11.40;60.40;;;;;;5025387;28;20116;-36
2023/12/13 07:34:28;;;;;;;6.60;1.45;;;11.30;60.20;;;;;;5026240;28;20062;-36
2023/12/13 07:36:56;;;;;;;5.35;1.20;;;11.30;60.20;;;;;;5022784;28;20053;-36
2023/12/13 07:39:24;;;;;;;3.80;1.00;;;11.30;60.20;;;;;;5024095;28;20053;-36
2023/12/13 07:41:51;;;;;;;7.68;1.17;;;11.30;60.20;;;;;;5024861;28;20060;-36
2023/12/13 07:44:18;;;;;;;7.47;2.05;;;11.30;60.20;;;;;;5023300;28;20417;-36
2023/12/13 07:46:46;;;;;;;57.28;23.30;;;11.30;60.20;;;;;;5023075;28;20053;-36
2023/12/13 07:49:13;;;;;;;14.95;6.22;;;11.30;60.20;;;;;;5023153;28;20054;-35
2023/12/13 07:51:41;;;;;;;9.88;3.40;;;11.30;60.20;;;;;;5024345;28;20634;-36
2023/12/13 07:54:09;;;;;;;8.52;2.42;;;11.20;60.00;;;;;;5021132;28;20050;-37
2023/12/13 07:56:36;;;;;;;9.27;1.80;;;11.20;60.00;;;;;;5026982;28;20049;-36
2023/12/13 07:59:03;;;;;;;8.23;1.52;;;11.20;59.90;;;;;;5025948;28;20041;-37
2023/12/13 08:01:30;;;;;;;6.50;1.35;;;11.20;59.90;;;;;;5023403;28;20060;-35
2023/12/13 08:03:58;;;;;;;7.30;1.60;;;11.20;59.90;;;;;;5025518;28;20058;-36
2023/12/13 08:06:27;;;;;;;16.17;4.53;;;11.20;60.00;;;;;;5023111;28;20056;-36
2023/12/13 08:08:55;;;;;;;8.50;1.90;;;11.10;60.10;;;;;;5024137;28;20532;-37
2023/12/13 08:11:23;;;;;;;7.53;2.03;;;11.10;60.20;;;;;;5025859;28;20065;-36
2023/12/13 08:13:50;;;;;;;10.75;2.25;;;11.10;60.20;;;;;;5022268;28;20053;-37
2023/12/13 08:16:17;;;;;;;4.57;1.35;;;11.10;60.30;;;;;;5023129;28;20076;-35
2023/12/13 08:18:44;;;;;;;4.03;1.23;;;11.10;60.30;;;;;;5018758;28;20056;-36
2023/12/13 08:21:12;;;;;;;4.72;1.23;;;11.10;60.40;;;;;;5020030;28;20054;-36
2023/12/13 08:23:39;;;;;;;3.83;1.30;;;11.10;60.50;;;;;;5029306;28;20124;-36
2023/12/13 08:26:12;;;;;;;7.55;1.55;;;11.10;60.60;;;;;;5019097;28;20548;-37
2023/12/13 08:28:39;;;;;;;2.33;1.40;;;11.10;60.80;;;;;;5021976;28;20060;-36
2023/12/13 08:31:07;;;;;;;7.57;1.73;;;11.10;60.90;;;;;;5023181;28;20490;-37
2023/12/13 08:33:34;;;;;;;7.80;1.63;;;11.10;61.10;;;;;;5025235;28;20065;-36
2023/12/13 08:36:04;;;;;;;6.43;1.73;;;11.10;61.20;;;;;;5026564;28;20064;-35
2023/12/13 08:38:31;;;;;;;3.78;1.40;;;11.10;61.40;;;;;;5021215;28;20069;-36
2023/12/13 08:40:59;;;;;;;4.50;1.70;;;11.10;61.50;;;;;;5020836;28;20053;-36
2023/12/13 08:43:27;;;;;;;8.32;1.60;;;11.20;61.60;;;;;;5021621;28;20501;-37
2023/12/13 08:45:54;;;;;;;8.75;3.05;;;11.20;61.80;;;;;;5021139;28;20049;-36
2023/12/13 08:48:23;;;;;;;8.40;1.70;;;11.20;61.90;;;;;;5022662;28;20046;-36
2023/12/13 08:50:51;;;;;;;5.35;1.40;;;11.30;62.00;;;;;;5020336;28;20473;-36
2023/12/13 08:53:18;;;;;;;4.20;1.55;;;11.30;62.20;;;;;;5022350;28;20070;-37
2023/12/13 08:55:45;;;;;;;7.88;1.88;;;11.30;62.20;;;;;;5019946;28;20053;-37
2023/12/13 08:58:13;;;;;;;5.45;1.60;;;11.30;62.30;;;;;;5024033;28;20053;-36
2023/12/13 09:00:41;;;;;;;7.40;1.60;;;11.40;62.40;;;;;;5022479;28;20057;-37
2023/12/13 09:03:09;;;;;;;8.60;1.70;;;11.40;62.50;;;;;;5021580;28;20517;-36
2023/12/13 09:05:37;;;;;;;8.40;2.50;;;11.40;62.50;;;;;;5022354;28;20053;-36
2023/12/13 09:08:04;;;;;;;7.25;2.00;;;11.40;62.50;;;;;;5024478;28;20068;-36
2023/12/13 09:10:34;;;;;;;10.15;1.90;;;11.50;62.70;;;;;;5022042;28;20053;-37
2023/12/13 09:13:03;;;;;;;10.15;2.13;;;11.50;62.60;;;;;;5025053;28;20061;-36
2023/12/13 09:15:31;;;;;;;8.77;2.03;;;11.60;62.70;;;;;;5026837;28;20409;-36
2023/12/13 09:17:59;;;;;;;6.18;1.83;;;11.60;62.70;;;;;;5026520;28;20064;-36
2023/12/13 09:20:27;;;;;;;7.28;1.98;;;11.60;62.70;;;;;;5024980;28;20064;-36
2023/12/13 09:22:54;;;;;;;8.70;2.05;;;11.70;62.80;;;;;;5026372;28;20049;-36
2023/12/13 09:25:21;;;;;;;7.97;2.10;;;11.70;62.80;;;;;;5024362;28;20057;-37
2023/12/13 09:27:48;;;;;;;5.30;1.70;;;11.70;62.90;;;;;;5024080;28;20057;-36
2023/12/13 09:30:16;;;;;;;6.45;2.08;;;11.80;63.00;;;;;;5024943;28;20053;-36
2023/12/13 09:32:43;;;;;;;11.13;2.05;;;11.80;63.00;;;;;;5025948;28;20054;-37
2023/12/13 09:35:12;;;;;;;4.63;1.50;;;11.90;63.00;;;;;;5022588;28;20060;-36
2023/12/13 09:37:41;;;;;;;5.80;1.80;;;11.90;63.00;;;;;;5023701;28;20045;-37
2023/12/13 09:40:14;;;;;;;9.32;2.40;;;11.90;63.00;;;;;;5027688;28;20054;-36
2023/12/13 09:42:45;;;;;;;10.33;2.03;;;12.00;63.10;;;;;;5022267;28;20062;-37
2023/12/13 09:45:18;;;;;;;6.05;1.52;;;12.00;63.10;;;;;;5024628;28;20054;-36
2023/12/13 09:47:46;;;;;;;7.28;1.58;;;12.10;63.20;;;;;;5023601;28;20383;-37
2023/12/13 09:50:15;;;;;;;5.65;1.65;;;12.10;63.20;;;;;;5023561;28;20497;-36
2023/12/13 09:52:43;;;;;;;6.25;1.55;;;12.10;63.10;;;;;;5025766;28;20064;-36
2023/12/13 09:55:11;;;;;;;7.43;1.85;;;12.20;63.20;;;;;;5027348;28;20398;-36
2023/12/13 09:57:39;;;;;;;5.65;1.52;;;12.20;63.10;;;;;;5020967;28;20061;-36
2023/12/13 10:00:07;;;;;;;5.70;1.70;;;12.20;63.10;;;;;;5022302;28;20057;-35
2023/12/13 10:02:35;;;;;;;8.65;1.60;;;12.30;63.10;;;;;;5020678;28;20491;-36
2023/12/13 10:05:05;;;;;;;4.75;1.75;;;12.40;63.10;;;;;;5015436;28;20057;-36
2023/12/13 10:07:34;;;;;;;9.77;2.17;;;12.40;63.00;;;;;;5029605;28;20068;-36
2023/12/13 10:10:01;;;;;;;9.25;2.03;;;12.40;62.80;;;;;;5024406;28;20497;-37
2023/12/13 10:12:28;;;;;;;6.03;1.70;;;12.40;62.70;;;;;;5024471;28;20062;-37
2023/12/13 10:14:56;;;;;;;10.35;2.28;;;12.40;62.60;;;;;;5024206;28;20057;-41
2023/12/13 10:17:24;;;;;;;9.15;2.05;;;12.40;62.50;;;;;;5021047;28;20049;-43
2023/12/13 10:19:51;;;;;;;12.27;2.40;;;12.50;62.60;;;;;;5027615;28;20509;-48
2023/12/13 10:22:19;;;;;;;5.65;1.88;;;12.50;62.50;;;;;;5022909;28;20057;-51
2023/12/13 10:24:48;;;;;;;11.93;3.50;;;12.50;62.50;;;;;;5020936;28;20053;-48
2023/12/13 10:27:16;;;;;;;6.28;1.73;;;12.50;62.50;;;;;;5024299;28;20401;-48
2023/12/13 10:29:47;;;;;;;4.43;1.40;;;12.50;62.50;;;;;;5020202;28;20064;-45
2023/12/13 10:32:14;;;;;;;4.88;1.58;;;12.50;62.50;;;;;;5020993;28;20053;-44
2023/12/13 10:34:41;;;;;;;4.78;1.40;;;12.50;62.50;;;;;;5023820;28;20045;-45
2023/12/13 10:37:09;;;;;;;7.03;1.55;;;12.60;62.60;;;;;;5024097;28;20062;-40
2023/12/13 10:39:36;;;;;;;1.90;0.90;;;12.50;62.60;;;;;;5022228;28;20414;-48
2023/12/13 10:42:06;;;;;;;5.80;1.42;;;12.50;62.60;;;;;;5023920;28;20416;-42
2023/12/13 10:44:35;;;;;;;3.95;1.35;;;12.50;62.70;;;;;;5022467;28;20421;-50
2023/12/13 10:47:06;;;;;;;4.13;0.90;;;12.60;62.90;;;;;;5022625;28;20088;-49
2023/12/13 10:49:34;;;;;;;5.18;1.10;;;12.60;62.90;;;;;;5028981;28;20061;-50
2023/12/13 10:52:04;;;;;;;3.92;1.10;;;12.60;62.90;;;;;;5027774;28;20053;-48
2023/12/13 10:54:32;;;;;;;3.67;0.73;;;12.60;62.80;;;;;;5026983;28;20060;-48
2023/12/13 10:57:01;;;;;;;3.63;0.85;;;12.60;62.90;;;;;;5026688;28;20434;-39
2023/12/13 10:59:30;;;;;;;3.50;1.00;;;12.70;62.90;;;;;;5019973;28;20072;-41
2023/12/13 11:01:59;;;;;;;5.15;1.20;;;12.70;62.90;;;;;;5019956;28;20061;-48
2023/12/13 11:04:27;;;;;;;4.38;1.20;;;12.70;62.90;;;;;;5025866;28;20061;-45
2023/12/13 11:06:54;;;;;;;5.13;1.20;;;12.70;62.90;;;;;;5028908;28;20056;-47
2023/12/13 11:09:23;;;;;;;3.67;1.20;;;12.80;63.00;;;;;;5022526;28;20049;-45
2023/12/13 11:11:51;;;;;;;3.38;0.82;;;12.80;63.00;;;;;;5024202;28;20061;-44
2023/12/13 11:14:20;;;;;;;4.78;1.40;;;12.80;63.00;;;;;;5022012;28;20061;-48
2023/12/13 11:16:51;;;;;;;4.68;1.02;;;12.90;63.10;;;;;;5024890;28;20049;-44
2023/12/13 11:19:24;;;;;;;2.10;0.88;;;12.90;63.10;;;;;;5021271;28;20046;-47
2023/12/13 11:21:52;;;;;;;2.15;1.00;;;12.90;63.10;;;;;;5020942;28;20054;-48
2023/12/13 11:24:22;;;;;;;2.50;0.95;;;13.00;63.00;;;;;;5019497;28;20057;-46
2023/12/13 11:26:52;;;;;;;5.07;0.95;;;13.00;62.80;;;;;;5026647;28;20061;-44
2023/12/13 11:29:22;;;;;;;3.58;1.00;;;13.10;62.80;;;;;;5027867;28;20046;-48
2023/12/13 11:31:53;;;;;;;3.30;0.80;;;13.10;62.40;;;;;;5028741;28;20394;-48
2023/12/13 11:34:32;;;;;;;2.78;0.88;;;13.10;62.40;;;;;;5021852;28;20057;-47
2023/12/13 11:37:01;;;;;;;3.13;1.02;;;13.20;62.40;;;;;;5019360;28;20046;-48
2023/12/13 11:39:29;;;;;;;6.20;1.42;;;13.20;62.40;;;;;;5020041;28;20474;-47
2023/12/13 11:41:58;;;;;;;4.63;1.00;;;13.30;62.20;;;;;;5024698;28;20509;-42
2023/12/13 11:44:29;;;;;;;4.75;1.20;;;13.30;61.30;;;;;;5022441;28;20069;-49
2023/12/13 11:46:59;;;;;;;4.70;1.02;;;13.40;61.20;;;;;;5019490;28;20517;-49
2023/12/13 11:49:26;;;;;;;9.70;1.60;;;13.40;61.10;;;;;;5026430;28;20049;-47
2023/12/13 11:51:54;;;;;;;6.50;0.80;;;13.40;60.90;;;;;;5023638;28;20053;-40
2023/12/13 11:54:21;;;;;;;5.13;0.93;;;13.50;60.80;;;;;;5025454;28;20061;-46
2023/12/13 11:56:49;;;;;;;2.08;0.77;;;13.50;60.20;;;;;;5027295;28;20057;-42
2023/12/13 11:59:16;;;;;;;6.22;1.73;;;13.60;59.90;;;;;;5027733;28;20414;-47
2023/12/13 12:01:43;;;;;;;1.85;0.90;;;13.60;59.80;;;;;;5027403;28;20429;-50
2023/12/13 12:04:13;;;;;;;5.60;0.98;;;13.60;59.70;;;;;;5024510;28;20064;-44
2023/12/13 12:06:46;;;;;;;5.15;1.08;;;13.60;59.50;;;;;;5028500;28;20057;-47
2023/12/13 12:09:14;;;;;;;4.75;1.15;;;13.70;59.20;;;;;;5023077;28;20046;-44
2023/12/13 12:11:41;;;;;;;6.78;1.77;;;13.70;59.20;;;;;;5022924;28;20060;-46
2023/12/13 12:14:09;;;;;;;7.18;1.40;;;13.70;59.10;;;;;;5020839;28;20489;-47
2023/12/13 12:16:37;;;;;;;3.78;1.50;;;13.70;59.00;;;;;;5020541;28;20053;-47
2023/12/13 12:19:04;;;;;;;4.28;2.33;;;13.80;59.20;;;;;;5020670;28;20057;-44
2023/12/13 12:21:35;;;;;;;5.00;1.55;;;13.80;59.30;;;;;;5023775;28;20375;-47
2023/12/13 12:24:03;;;;;;;5.57;1.80;;;13.80;59.30;;;;;;5025683;28;20049;-47
2023/12/13 12:26:30;;;;;;;5.28;1.50;;;13.80;59.40;;;;;;5014976;28;20057;-44
2023/12/13 12:28:58;;;;;;;1.45;0.98;;;13.90;59.50;;;;;;5025310;28;20068;-50
2023/12/13 12:31:25;;;;;;;2.25;1.05;;;13.90;59.50;;;;;;5028068;28;20058;-43
2023/12/13 12:33:56;;;;;;;4.57;1.00;;;13.90;59.30;;;;;;5025844;28;20061;-36
2023/12/13 12:36:23;;;;;;;6.70;1.00;;;14.00;59.00;;;;;;5027263;28;20120;-36
2023/12/13 12:38:52;;;;;;;5.72;1.05;;;14.00;58.80;;;;;;5027579;28;20053;-36
2023/12/13 12:41:22;;;;;;;7.00;1.25;;;14.00;58.80;;;;;;5026522;28;20065;-36
2023/12/13 12:43:49;;;;;;;3.72;0.88;;;14.00;58.50;;;;;;5024078;28;20120;-36
2023/12/13 12:46:18;;;;;;;2.45;1.17;;;14.00;58.40;;;;;;5028669;28;20045;-36
2023/12/13 12:48:46;;;;;;;7.45;1.45;;;14.00;58.50;;;;;;5020816;28;20045;-35